createdAt,value
2017-04-26T03:01:11.024Z,18.64
2017-04-26T03:01:36.613Z,18.61
2017-04-26T03:02:02.175Z,18.77
2017-04-26T03:02:27.719Z,18.72
2017-04-26T03:02:53.278Z,18.72
2017-04-26T03:03:18.842Z,18.68
2017-04-26T03:03:44.441Z,18.68
2017-04-26T03:04:09.980Z,18.67
2017-04-26T03:04:35.555Z,18.74
2017-04-26T03:05:01.106Z,18.72
2017-04-26T03:05:26.657Z,18.72
2017-04-26T03:05:52.321Z,18.74
2017-04-26T03:06:17.871Z,18.72
2017-04-26T03:06:43.422Z,18.7
2017-04-26T03:07:09.025Z,18.72
2017-04-26T03:07:34.603Z,18.7
2017-04-26T03:08:00.152Z,18.72
2017-04-26T03:08:25.732Z,18.77
2017-04-26T03:08:51.403Z,18.67
2017-04-26T03:09:16.981Z,18.72
2017-04-26T03:09:42.532Z,18.73
2017-04-26T03:10:30.810Z,18.68
2017-04-26T03:10:56.344Z,18.76
2017-04-26T03:11:22.010Z,18.7
2017-04-26T03:11:47.594Z,18.72
2017-04-26T03:12:13.164Z,18.73
2017-04-26T03:12:38.733Z,18.68
2017-04-26T03:13:04.295Z,18.67
2017-04-26T03:13:29.861Z,18.72
2017-04-26T03:13:55.403Z,18.72
2017-04-26T03:14:20.962Z,18.7
2017-04-26T03:14:46.558Z,18.74
2017-04-26T03:15:12.151Z,18.67
2017-04-26T03:15:37.733Z,18.68
2017-04-26T03:16:03.313Z,18.67
2017-04-26T03:16:28.885Z,18.68
2017-04-26T03:16:54.492Z,18.7
2017-04-26T03:17:20.091Z,18.72
2017-04-26T03:17:45.611Z,18.7
2017-04-26T03:18:11.224Z,18.68
2017-04-26T03:18:36.771Z,18.7
2017-04-26T03:19:02.379Z,18.7
2017-04-26T03:19:27.949Z,18.7
2017-04-26T03:19:53.504Z,18.72
2017-04-26T03:20:19.049Z,18.73
2017-04-26T03:20:44.615Z,18.72
2017-04-26T03:21:10.161Z,18.7
2017-04-26T03:21:35.722Z,18.62
2017-04-26T03:22:01.283Z,18.68
2017-04-26T03:22:26.849Z,18.65
2017-04-26T03:22:52.415Z,18.7
2017-04-26T03:23:17.974Z,18.73
2017-04-26T03:23:43.531Z,18.72
2017-04-26T03:24:09.097Z,18.7
2017-04-26T03:24:34.644Z,18.72
2017-04-26T03:25:00.312Z,18.68
2017-04-26T03:25:25.850Z,18.7
2017-04-26T03:25:51.399Z,18.72
2017-04-26T03:26:16.972Z,18.7
2017-04-26T03:26:42.527Z,18.73
2017-04-26T03:27:08.079Z,18.68
2017-04-26T03:27:33.629Z,18.7
2017-04-26T03:27:59.182Z,18.7
2017-04-26T03:28:24.728Z,18.68
2017-04-26T03:28:50.473Z,18.68
2017-04-26T03:29:16.008Z,18.7
2017-04-26T03:29:41.541Z,18.72
2017-04-26T03:30:07.110Z,18.68
2017-04-26T03:30:32.662Z,18.7
2017-04-26T03:30:58.242Z,18.7
2017-04-26T03:31:23.843Z,18.72
2017-04-26T03:31:49.417Z,18.64
2017-04-26T03:32:14.994Z,18.72
2017-04-26T03:32:40.551Z,18.61
2017-04-26T03:33:06.124Z,18.67
2017-04-26T03:33:31.678Z,18.73
2017-04-26T03:33:57.243Z,18.7
2017-04-26T03:34:22.805Z,18.68
2017-04-26T03:34:48.357Z,18.65
2017-04-26T03:35:13.923Z,18.7
2017-04-26T03:35:39.466Z,18.68
2017-04-26T03:36:05.029Z,18.67
2017-04-26T03:36:30.561Z,18.67
2017-04-26T03:36:56.133Z,18.7
2017-04-26T03:37:21.780Z,18.65
2017-04-26T03:37:47.306Z,18.68
2017-04-26T03:38:12.850Z,18.64
2017-04-26T03:38:38.440Z,18.7
2017-04-26T03:39:03.993Z,18.7
2017-04-26T03:39:29.572Z,18.68
2017-04-26T03:39:55.127Z,18.65
2017-04-26T03:40:20.704Z,18.64
2017-04-26T03:40:46.242Z,18.67
2017-04-26T03:41:11.801Z,18.62
2017-04-26T03:41:37.353Z,18.67
2017-04-26T03:42:02.901Z,18.68
2017-04-26T03:42:28.456Z,18.62
2017-04-26T03:42:54.011Z,18.7
2017-04-26T03:43:19.618Z,18.61
2017-04-26T03:43:45.169Z,18.59
2017-04-26T03:44:10.706Z,18.61
2017-04-26T03:44:36.249Z,18.65
2017-04-26T03:45:01.794Z,18.62
2017-04-26T03:45:27.435Z,18.68
2017-04-26T03:45:52.991Z,18.64
2017-04-26T03:46:18.570Z,18.59
2017-04-26T03:46:44.105Z,18.57
2017-04-26T03:47:09.644Z,18.59
2017-04-26T03:47:35.211Z,18.57
2017-04-26T03:48:00.870Z,18.59
2017-04-26T03:49:04.310Z,18.57
2017-04-26T03:49:29.861Z,18.58
2017-04-26T03:49:55.412Z,18.64
2017-04-26T03:50:20.951Z,18.57
2017-04-26T03:50:46.505Z,18.64
2017-04-26T03:51:12.056Z,18.57
2017-04-26T03:51:37.622Z,18.61
2017-04-26T03:52:03.186Z,18.59
2017-04-26T03:52:28.761Z,18.61
2017-04-26T03:52:54.299Z,18.57
2017-04-26T03:53:19.865Z,18.72
2017-04-26T03:53:45.414Z,18.59
2017-04-26T03:54:10.993Z,18.72
2017-04-26T03:54:36.558Z,18.62
2017-04-26T03:55:02.139Z,18.64
2017-04-26T03:55:27.759Z,18.61
2017-04-26T03:55:53.308Z,18.58
2017-04-26T03:56:18.876Z,18.64
2017-04-26T03:56:44.440Z,18.57
2017-04-26T03:57:10.000Z,18.59
2017-04-26T03:57:35.563Z,18.62
2017-04-26T03:58:01.122Z,18.68
2017-04-26T03:58:26.684Z,18.64
2017-04-26T03:58:52.350Z,18.55
2017-04-26T03:59:17.875Z,18.57
2017-04-26T03:59:43.452Z,18.57
2017-04-26T04:00:09.003Z,18.64
2017-04-26T04:00:34.591Z,18.58
2017-04-26T04:01:00.129Z,18.62
2017-04-26T04:01:25.690Z,18.58
2017-04-26T04:01:51.254Z,18.58
2017-04-26T04:02:16.804Z,18.61
2017-04-26T04:02:42.364Z,18.72
2017-04-26T04:03:07.893Z,18.57
2017-04-26T04:03:33.461Z,18.61
2017-04-26T04:03:59.019Z,18.65
2017-04-26T04:04:24.573Z,18.57
2017-04-26T04:04:50.176Z,18.58
2017-04-26T04:05:15.794Z,18.65
2017-04-26T04:05:41.349Z,18.59
2017-04-26T04:06:07.111Z,18.58
2017-04-26T04:06:32.630Z,18.55
2017-04-26T04:06:58.183Z,18.57
2017-04-26T04:07:23.749Z,18.64
2017-04-26T04:07:49.311Z,18.61
2017-04-26T04:08:14.873Z,18.61
2017-04-26T04:08:40.410Z,18.67
2017-04-26T04:09:05.973Z,18.61
2017-04-26T04:09:31.595Z,18.65
2017-04-26T04:09:57.127Z,18.59
2017-04-26T04:10:22.670Z,18.64
2017-04-26T04:10:48.204Z,18.68
2017-04-26T04:11:13.738Z,18.55
2017-04-26T04:11:39.283Z,18.59
2017-04-26T04:12:04.842Z,18.61
2017-04-26T04:12:30.374Z,18.67
2017-04-26T04:12:55.911Z,18.58
2017-04-26T04:13:21.475Z,18.65
2017-04-26T04:13:47.040Z,18.65
2017-04-26T04:14:12.588Z,18.55
2017-04-26T04:14:38.142Z,18.61
2017-04-26T04:15:03.695Z,18.64
2017-04-26T04:15:29.334Z,18.58
2017-04-26T04:15:54.962Z,18.59
2017-04-26T04:16:20.533Z,18.59
2017-04-26T04:16:46.093Z,18.58
2017-04-26T04:17:11.653Z,18.58
2017-04-26T04:17:37.213Z,18.62
2017-04-26T04:18:02.913Z,18.65
2017-04-26T04:18:28.533Z,18.58
2017-04-26T04:18:54.080Z,18.58
2017-04-26T04:19:19.652Z,18.54
2017-04-26T04:19:45.225Z,18.52
2017-04-26T04:20:10.752Z,18.58
2017-04-26T04:20:36.301Z,18.54
2017-04-26T04:21:01.850Z,18.57
2017-04-26T04:21:27.392Z,18.58
2017-04-26T04:21:52.961Z,18.57
2017-04-26T04:22:18.527Z,18.49
2017-04-26T04:22:44.080Z,18.57
2017-04-26T04:23:09.694Z,18.54
2017-04-26T04:23:35.280Z,18.59
2017-04-26T04:24:00.854Z,18.61
2017-04-26T04:24:26.482Z,18.58
2017-04-26T04:24:52.034Z,18.58
2017-04-26T04:25:17.586Z,18.61
2017-04-26T04:25:43.276Z,18.55
2017-04-26T04:26:08.835Z,18.57
2017-04-26T04:26:34.393Z,18.57
2017-04-26T04:26:59.975Z,18.57
2017-04-26T04:27:25.553Z,18.57
2017-04-26T04:27:51.133Z,18.57
2017-04-26T04:28:16.661Z,18.57
2017-04-26T04:28:42.210Z,18.55
2017-04-26T04:29:07.775Z,18.58
2017-04-26T04:29:33.457Z,18.58
2017-04-26T04:29:59.000Z,18.58
2017-04-26T04:30:24.573Z,18.59
2017-04-26T04:30:50.148Z,18.58
2017-04-26T04:31:15.701Z,18.61
2017-04-26T04:31:41.272Z,18.57
2017-04-26T04:32:06.842Z,18.57
2017-04-26T04:32:32.410Z,18.54
2017-04-26T04:32:58.004Z,18.64
2017-04-26T04:33:23.631Z,18.55
2017-04-26T04:33:49.194Z,18.57
2017-04-26T04:34:14.769Z,18.52
2017-04-26T04:34:40.330Z,18.46
2017-04-26T04:35:05.890Z,18.52
2017-04-26T04:35:31.453Z,18.55
2017-04-26T04:35:57.002Z,18.55
2017-04-26T04:36:22.565Z,18.52
2017-04-26T04:36:48.113Z,18.5
2017-04-26T04:37:13.707Z,18.57
2017-04-26T04:37:39.264Z,18.52
2017-04-26T04:38:05.584Z,18.57
2017-04-26T04:38:31.157Z,18.58
2017-04-26T04:38:56.699Z,18.55
2017-04-26T04:39:22.275Z,18.55
2017-04-26T04:39:47.831Z,18.57
2017-04-26T04:40:13.383Z,18.54
2017-04-26T04:40:38.937Z,18.55
2017-04-26T04:41:04.483Z,18.55
2017-04-26T04:41:30.084Z,18.54
2017-04-26T04:41:55.642Z,18.54
2017-04-26T04:42:21.205Z,18.55
2017-04-26T04:42:46.764Z,18.54
2017-04-26T04:43:12.480Z,18.57
2017-04-26T04:43:38.073Z,18.44
2017-04-26T04:44:03.641Z,18.58
2017-04-26T04:44:29.184Z,18.52
2017-04-26T04:44:54.760Z,18.55
2017-04-26T04:45:20.386Z,18.52
2017-04-26T04:45:45.963Z,18.52
2017-04-26T04:46:11.612Z,18.5
2017-04-26T04:46:37.174Z,18.52
2017-04-26T04:47:02.842Z,18.54
2017-04-26T04:47:28.401Z,18.55
2017-04-26T04:47:53.960Z,18.5
2017-04-26T04:48:19.525Z,18.5
2017-04-26T04:48:45.080Z,18.46
2017-04-26T04:49:10.653Z,18.55
2017-04-26T04:49:36.203Z,18.49
2017-04-26T04:50:01.763Z,18.5
2017-04-26T04:50:27.319Z,18.54
2017-04-26T04:50:53.069Z,18.5
2017-04-26T04:51:18.650Z,18.55
2017-04-26T04:51:44.260Z,18.5
2017-04-26T04:52:09.903Z,18.5
2017-04-26T04:52:35.555Z,18.61
2017-04-26T04:53:01.219Z,18.55
2017-04-26T04:53:26.794Z,18.55
2017-04-26T04:53:52.360Z,18.49
2017-04-26T04:54:17.940Z,18.5
2017-04-26T04:54:43.494Z,18.5
2017-04-26T04:55:09.053Z,18.43
2017-04-26T04:55:34.765Z,18.49
2017-04-26T04:56:00.337Z,18.47
2017-04-26T04:56:25.910Z,18.43
2017-04-26T04:56:51.479Z,18.42
2017-04-26T04:57:17.064Z,18.47
2017-04-26T04:57:42.620Z,18.5
2017-04-26T04:58:08.188Z,18.54
2017-04-26T04:58:33.753Z,18.5
2017-04-26T04:58:59.313Z,18.54
2017-04-26T04:59:24.890Z,18.55
2017-04-26T04:59:50.451Z,18.5
2017-04-26T05:00:16.030Z,18.54
2017-04-26T05:00:41.644Z,18.5
2017-04-26T05:01:07.203Z,18.52
2017-04-26T05:01:32.781Z,18.47
2017-04-26T05:01:58.363Z,18.57
2017-04-26T05:02:23.952Z,18.5
2017-04-26T05:02:49.519Z,18.47
2017-04-26T05:03:15.118Z,18.52
2017-04-26T05:03:40.814Z,18.54
2017-04-26T05:04:06.364Z,18.49
2017-04-26T05:04:32.053Z,18.54
2017-04-26T05:04:57.621Z,18.44
2017-04-26T05:05:23.197Z,18.47
2017-04-26T05:05:48.737Z,18.52
2017-04-26T05:06:14.483Z,18.58
2017-04-26T05:06:40.058Z,18.49
2017-04-26T05:07:05.623Z,18.52
2017-04-26T05:07:31.241Z,18.44
2017-04-26T05:07:56.855Z,18.52
2017-04-26T05:08:22.410Z,18.5
2017-04-26T05:08:48.005Z,18.5
2017-04-26T05:09:46.557Z,18.44
2017-04-26T05:10:12.109Z,18.5
2017-04-26T05:10:37.679Z,18.57
2017-04-26T05:11:03.275Z,18.49
2017-04-26T05:11:28.832Z,18.5
2017-04-26T05:11:54.394Z,18.47
2017-04-26T05:12:19.959Z,18.46
2017-04-26T05:12:45.533Z,18.47
2017-04-26T05:13:11.100Z,18.52
2017-04-26T05:13:36.680Z,18.47
2017-04-26T05:14:02.231Z,18.47
2017-04-26T05:14:27.783Z,18.54
2017-04-26T05:14:53.345Z,18.47
2017-04-26T05:15:18.901Z,18.42
2017-04-26T05:15:44.559Z,18.43
2017-04-26T05:16:10.135Z,18.47
2017-04-26T05:16:35.694Z,18.5
2017-04-26T05:17:01.284Z,18.42
2017-04-26T05:17:26.875Z,18.4
2017-04-26T05:17:52.450Z,18.49
2017-04-26T05:18:18.023Z,18.49
2017-04-26T05:18:43.595Z,18.49
2017-04-26T05:19:09.152Z,18.5
2017-04-26T05:19:35.481Z,18.44
2017-04-26T05:20:01.142Z,18.4
2017-04-26T05:20:26.718Z,18.47
2017-04-26T05:20:52.289Z,18.47
2017-04-26T05:21:17.846Z,18.43
2017-04-26T05:21:43.392Z,18.46
2017-04-26T05:22:08.962Z,18.49
2017-04-26T05:22:34.654Z,18.46
2017-04-26T05:23:00.245Z,18.44
2017-04-26T05:23:25.813Z,18.52
2017-04-26T05:23:51.370Z,18.5
2017-04-26T05:24:16.994Z,18.46
2017-04-26T05:24:42.551Z,18.43
2017-04-26T05:25:08.119Z,18.46
2017-04-26T05:25:33.814Z,18.52
2017-04-26T05:25:59.392Z,18.47
2017-04-26T05:26:24.992Z,18.44
2017-04-26T05:26:50.556Z,18.43
2017-04-26T05:27:16.103Z,18.47
2017-04-26T05:27:41.660Z,18.47
2017-04-26T05:28:07.219Z,18.49
2017-04-26T05:28:32.778Z,18.55
2017-04-26T05:29:36.394Z,18.47
2017-04-26T05:30:01.980Z,18.49
2017-04-26T05:30:27.528Z,18.52
2017-04-26T05:30:53.076Z,18.57
2017-04-26T05:31:18.633Z,18.54
2017-04-26T05:31:44.219Z,18.46
2017-04-26T05:32:09.852Z,18.43
2017-04-26T05:32:35.407Z,18.54
2017-04-26T05:33:00.964Z,18.55
2017-04-26T05:33:26.557Z,18.47
2017-04-26T05:33:52.162Z,18.54
2017-04-26T05:34:17.711Z,18.55
2017-04-26T05:34:43.343Z,18.44
2017-04-26T05:35:08.903Z,18.55
2017-04-26T05:35:34.462Z,18.46
2017-04-26T05:36:00.031Z,18.54
2017-04-26T05:36:25.601Z,18.47
2017-04-26T05:36:51.153Z,18.5
2017-04-26T05:37:16.777Z,18.54
2017-04-26T05:37:42.335Z,18.47
2017-04-26T05:38:07.892Z,18.5
2017-04-26T05:38:33.447Z,18.44
2017-04-26T05:38:59.031Z,18.5
2017-04-26T05:39:24.582Z,18.46
2017-04-26T05:39:50.177Z,18.54
2017-04-26T05:40:15.761Z,18.5
2017-04-26T05:40:41.352Z,18.49
2017-04-26T05:41:06.912Z,18.46
2017-04-26T05:41:32.471Z,18.46
2017-04-26T05:41:58.029Z,18.42
2017-04-26T05:42:23.754Z,18.46
2017-04-26T05:42:49.361Z,18.44
2017-04-26T05:43:14.924Z,18.44
2017-04-26T05:43:40.592Z,18.44
2017-04-26T05:44:06.150Z,18.44
2017-04-26T05:44:31.903Z,18.42
2017-04-26T05:44:57.437Z,18.43
2017-04-26T05:45:22.983Z,18.43
2017-04-26T05:45:48.546Z,18.43
2017-04-26T05:46:14.120Z,18.4
2017-04-26T05:46:39.690Z,18.49
2017-04-26T05:47:05.258Z,18.4
2017-04-26T05:47:30.829Z,18.46
2017-04-26T05:47:56.393Z,18.44
2017-04-26T05:48:21.936Z,18.47
2017-04-26T05:48:47.539Z,18.43
2017-04-26T05:49:13.122Z,18.42
2017-04-26T05:50:21.826Z,18.47
2017-04-26T05:50:47.496Z,18.42
2017-04-26T05:51:40.525Z,18.4
2017-04-26T05:52:06.087Z,18.5
2017-04-26T05:52:31.653Z,18.42
2017-04-26T05:52:57.205Z,18.39
2017-04-26T05:53:22.753Z,18.4
2017-04-26T05:53:48.296Z,18.4
2017-04-26T05:54:13.854Z,18.42
2017-04-26T05:54:39.409Z,18.44
2017-04-26T05:55:04.981Z,18.44
2017-04-26T05:55:30.623Z,18.39
2017-04-26T05:55:56.194Z,18.36
2017-04-26T05:56:21.786Z,18.37
2017-04-26T05:56:47.413Z,18.42
2017-04-26T05:57:13.075Z,18.5
2017-04-26T05:57:38.701Z,18.4
2017-04-26T05:58:04.278Z,18.43
2017-04-26T05:58:29.839Z,18.42
2017-04-26T05:58:55.395Z,18.44
2017-04-26T05:59:20.952Z,18.42
2017-04-26T05:59:46.509Z,18.37
2017-04-26T06:00:44.945Z,18.43
2017-04-26T06:01:10.514Z,18.43
2017-04-26T06:01:36.080Z,18.47
2017-04-26T06:02:01.657Z,18.4
2017-04-26T06:02:27.318Z,18.44
2017-04-26T06:02:52.920Z,18.5
2017-04-26T06:03:18.484Z,18.43
2017-04-26T06:03:44.042Z,18.42
2017-04-26T06:04:09.705Z,18.37
2017-04-26T06:04:35.262Z,18.44
2017-04-26T06:05:00.828Z,18.43
2017-04-26T06:05:26.400Z,18.43
2017-04-26T06:05:51.959Z,18.4
2017-04-26T06:06:17.520Z,18.47
2017-04-26T06:06:43.074Z,18.49
2017-04-26T06:07:08.620Z,18.42
2017-04-26T06:07:34.290Z,18.44
2017-04-26T06:07:59.895Z,18.49
2017-04-26T06:08:25.464Z,18.39
2017-04-26T06:08:51.013Z,18.4
2017-04-26T06:09:16.692Z,18.34
2017-04-26T06:09:42.262Z,18.4
2017-04-26T06:10:07.809Z,18.46
2017-04-26T06:10:33.359Z,18.43
2017-04-26T06:10:58.957Z,18.47
2017-04-26T06:11:24.519Z,18.46
2017-04-26T06:11:50.079Z,18.39
2017-04-26T06:12:15.624Z,18.4
2017-04-26T06:12:41.288Z,18.42
2017-04-26T06:13:06.840Z,18.43
2017-04-26T06:13:32.401Z,18.43
2017-04-26T06:13:57.967Z,18.46
2017-04-26T06:14:23.530Z,18.49
2017-04-26T06:14:49.122Z,18.49
2017-04-26T06:15:14.714Z,18.42
2017-04-26T06:15:40.268Z,18.4
2017-04-26T06:16:05.831Z,18.54
2017-04-26T06:16:31.392Z,18.42
2017-04-26T06:16:57.043Z,18.36
2017-04-26T06:17:22.627Z,18.39
2017-04-26T06:17:48.194Z,18.44
2017-04-26T06:18:13.843Z,18.34
2017-04-26T06:18:39.411Z,18.4
2017-04-26T06:19:04.956Z,18.42
2017-04-26T06:19:30.524Z,18.4
2017-04-26T06:19:56.091Z,18.4
2017-04-26T06:20:21.650Z,18.42
2017-04-26T06:20:47.203Z,18.39
2017-04-26T06:21:12.751Z,18.37
2017-04-26T06:21:38.416Z,18.47
2017-04-26T06:22:03.991Z,18.39
2017-04-26T06:22:29.555Z,18.44
2017-04-26T06:22:55.234Z,18.47
2017-04-26T06:23:20.845Z,18.46
2017-04-26T06:23:46.394Z,18.42
2017-04-26T06:24:11.969Z,18.44
2017-04-26T06:24:37.534Z,18.42
2017-04-26T06:25:03.093Z,18.43
2017-04-26T06:25:28.676Z,18.37
2017-04-26T06:25:54.224Z,18.42
2017-04-26T06:26:19.885Z,18.4
2017-04-26T06:26:45.472Z,18.39
2017-04-26T06:27:11.103Z,18.42
2017-04-26T06:27:36.685Z,18.47
2017-04-26T06:28:02.223Z,18.42
2017-04-26T06:28:27.782Z,18.46
2017-04-26T06:28:53.348Z,18.39
2017-04-26T06:29:18.908Z,18.39
2017-04-26T06:29:44.602Z,18.43
2017-04-26T06:30:10.149Z,18.43
2017-04-26T06:30:35.690Z,18.39
2017-04-26T06:31:01.345Z,18.43
2017-04-26T06:31:26.990Z,18.4
2017-04-26T06:31:52.519Z,18.36
2017-04-26T06:32:18.196Z,18.44
2017-04-26T06:32:43.747Z,18.39
2017-04-26T06:33:09.281Z,18.39
2017-04-26T06:33:34.875Z,18.37
2017-04-26T06:34:00.420Z,18.43
2017-04-26T06:34:25.972Z,18.4
2017-04-26T06:34:51.550Z,18.42
2017-04-26T06:35:17.155Z,18.4
2017-04-26T06:36:25.765Z,18.43
2017-04-26T06:36:51.312Z,18.55
2017-04-26T06:37:16.882Z,18.4
2017-04-26T06:37:42.433Z,18.47
2017-04-26T06:38:08.003Z,18.47
2017-04-26T06:38:33.577Z,18.43
2017-04-26T06:38:59.248Z,18.4
2017-04-26T06:39:24.821Z,18.42
2017-04-26T06:39:50.370Z,18.4
2017-04-26T06:40:15.946Z,18.49
2017-04-26T06:40:41.531Z,18.42
2017-04-26T06:41:07.087Z,18.37
2017-04-26T06:41:32.723Z,18.52
2017-04-26T06:41:58.288Z,18.46
2017-04-26T06:42:23.861Z,18.5
2017-04-26T06:42:49.440Z,18.44
2017-04-26T06:43:15.096Z,18.4
2017-04-26T06:43:40.660Z,18.4
2017-04-26T06:44:06.282Z,18.39
2017-04-26T06:44:31.860Z,18.43
2017-04-26T06:44:57.417Z,18.43
2017-04-26T06:45:23.024Z,18.42
2017-04-26T06:45:48.604Z,18.4
2017-04-26T06:46:14.164Z,18.46
2017-04-26T06:46:39.727Z,18.37
2017-04-26T06:47:05.282Z,18.4
2017-04-26T06:47:30.843Z,18.43
2017-04-26T06:47:56.461Z,18.39
2017-04-26T06:48:22.047Z,18.36
2017-04-26T06:48:47.578Z,18.37
2017-04-26T06:49:13.144Z,18.4
2017-04-26T06:49:38.701Z,18.42
2017-04-26T06:50:04.262Z,18.39
2017-04-26T06:50:29.803Z,18.5
2017-04-26T06:50:55.363Z,18.42
2017-04-26T06:51:20.921Z,18.37
2017-04-26T06:51:46.615Z,18.42
2017-04-26T06:52:12.181Z,18.4
2017-04-26T06:52:37.736Z,18.42
2017-04-26T06:53:03.354Z,18.43
2017-04-26T06:53:28.919Z,18.46
2017-04-26T06:53:54.475Z,18.34
2017-04-26T06:54:20.049Z,18.34
2017-04-26T06:54:45.622Z,18.44
2017-04-26T06:55:11.202Z,18.42
2017-04-26T06:55:36.791Z,18.43
2017-04-26T06:56:02.350Z,18.44
2017-04-26T06:56:27.914Z,18.36
2017-04-26T06:56:53.490Z,18.42
2017-04-26T06:57:19.056Z,18.4
2017-04-26T06:57:44.802Z,18.43
2017-04-26T06:58:10.355Z,18.43
2017-04-26T06:58:35.913Z,18.43
2017-04-26T06:59:01.474Z,18.34
2017-04-26T06:59:27.019Z,18.34
2017-04-26T06:59:52.578Z,18.43
2017-04-26T07:00:18.220Z,18.39
2017-04-26T07:00:43.770Z,18.42
2017-04-26T07:01:09.394Z,18.42
2017-04-26T07:01:34.960Z,18.49
2017-04-26T07:02:00.510Z,18.42
2017-04-26T07:02:26.054Z,18.44
2017-04-26T07:02:52.155Z,18.42
2017-04-26T07:03:17.658Z,18.43
2017-04-26T07:03:42.703Z,18.4
2017-04-26T07:04:08.249Z,18.44
2017-04-26T07:04:33.802Z,18.44
2017-04-26T07:04:59.344Z,18.44
2017-04-26T07:05:24.900Z,18.4
2017-04-26T07:05:50.511Z,18.4
2017-04-26T07:06:59.125Z,18.47
2017-04-26T07:07:24.784Z,18.49
2017-04-26T07:07:50.332Z,18.52
2017-04-26T07:08:15.893Z,18.37
2017-04-26T07:08:41.457Z,18.47
2017-04-26T07:09:07.024Z,18.39
2017-04-26T07:09:32.610Z,18.42
2017-04-26T07:09:58.138Z,18.42
2017-04-26T07:10:23.700Z,18.42
2017-04-26T07:10:49.271Z,18.37
2017-04-26T07:11:14.809Z,18.4
2017-04-26T07:11:40.423Z,18.43
2017-04-26T07:12:05.986Z,18.39
2017-04-26T07:12:31.542Z,18.46
2017-04-26T07:12:57.128Z,18.39
2017-04-26T07:13:22.684Z,18.44
2017-04-26T07:13:48.231Z,18.39
2017-04-26T07:14:13.794Z,18.44
2017-04-26T07:14:39.363Z,18.42
2017-04-26T07:15:04.939Z,18.43
2017-04-26T07:15:30.553Z,18.4
2017-04-26T07:15:56.103Z,18.43
2017-04-26T07:16:21.673Z,18.44
2017-04-26T07:16:47.243Z,18.49
2017-04-26T07:17:12.950Z,18.46
2017-04-26T07:17:38.497Z,18.4
2017-04-26T07:18:04.076Z,18.46
2017-04-26T07:18:29.652Z,18.36
2017-04-26T07:18:55.192Z,18.43
2017-04-26T07:19:20.805Z,18.54
2017-04-26T07:19:46.348Z,18.47
2017-04-26T07:20:11.904Z,18.42
2017-04-26T07:20:37.535Z,18.39
2017-04-26T07:21:03.062Z,18.47
2017-04-26T07:21:28.586Z,18.43
2017-04-26T07:21:54.154Z,18.5
2017-04-26T07:22:19.700Z,18.44
2017-04-26T07:22:45.260Z,18.43
2017-04-26T07:23:10.842Z,18.42
2017-04-26T07:23:36.363Z,18.43
2017-04-26T07:24:01.920Z,18.4
2017-04-26T07:24:27.472Z,18.4
2017-04-26T07:24:53.043Z,18.34
2017-04-26T07:25:18.603Z,18.39
2017-04-26T07:25:44.161Z,18.42
2017-04-26T07:26:09.700Z,18.42
2017-04-26T07:26:35.237Z,18.36
2017-04-26T07:27:00.770Z,18.39
2017-04-26T07:27:26.331Z,18.34
2017-04-26T07:27:51.897Z,18.33
2017-04-26T07:28:17.434Z,18.39
2017-04-26T07:28:42.973Z,18.39
2017-04-26T07:29:08.537Z,18.42
2017-04-26T07:29:34.099Z,18.34
2017-04-26T07:29:59.671Z,18.39
2017-04-26T07:30:25.436Z,18.34
2017-04-26T07:30:51.001Z,18.34
2017-04-26T07:31:16.566Z,18.34
2017-04-26T07:31:42.127Z,18.36
2017-04-26T07:32:07.679Z,18.34
2017-04-26T07:32:33.254Z,18.42
2017-04-26T07:32:58.804Z,18.37
2017-04-26T07:33:24.400Z,18.42
2017-04-26T07:33:49.935Z,18.4
2017-04-26T07:34:15.494Z,18.42
2017-04-26T07:34:41.068Z,18.42
2017-04-26T07:35:06.642Z,18.47
2017-04-26T07:35:32.201Z,18.37
2017-04-26T07:35:57.763Z,18.37
2017-04-26T07:36:23.340Z,18.4
2017-04-26T07:36:48.920Z,18.34
2017-04-26T07:37:14.534Z,18.42
2017-04-26T07:37:40.160Z,18.31
2017-04-26T07:38:05.721Z,18.39
2017-04-26T07:38:31.332Z,18.34
2017-04-26T07:38:56.960Z,18.39
2017-04-26T07:39:22.541Z,18.28
2017-04-26T07:39:48.194Z,18.34
2017-04-26T07:40:13.770Z,18.34
2017-04-26T07:40:39.341Z,18.29
2017-04-26T07:41:04.916Z,18.36
2017-04-26T07:41:30.500Z,18.4
2017-04-26T07:41:56.049Z,18.33
2017-04-26T07:42:21.632Z,18.37
2017-04-26T07:42:47.259Z,18.43
2017-04-26T07:43:12.802Z,18.4
2017-04-26T07:43:38.360Z,18.36
2017-04-26T07:44:03.932Z,18.37
2017-04-26T07:44:29.457Z,18.29
2017-04-26T07:44:55.025Z,18.29
2017-04-26T07:45:20.582Z,18.31
2017-04-26T07:45:46.171Z,18.39
2017-04-26T07:46:11.740Z,18.39
2017-04-26T07:46:37.361Z,18.39
2017-04-26T07:47:02.921Z,18.39
2017-04-26T07:47:28.499Z,18.42
2017-04-26T07:47:54.052Z,18.36
2017-04-26T07:48:19.631Z,18.42
2017-04-26T07:48:45.187Z,18.4
2017-04-26T07:49:10.762Z,18.37
2017-04-26T07:49:36.348Z,18.34
2017-04-26T07:50:01.890Z,18.39
2017-04-26T07:50:27.446Z,18.37
2017-04-26T07:50:53.001Z,18.34
2017-04-26T07:51:18.577Z,18.34
2017-04-26T07:51:44.132Z,18.43
2017-04-26T07:52:09.680Z,18.39
2017-04-26T07:52:35.241Z,18.43
2017-04-26T07:53:00.805Z,18.34
2017-04-26T07:53:26.387Z,18.42
2017-04-26T07:53:52.023Z,18.4
2017-04-26T07:54:17.566Z,18.33
2017-04-26T07:54:43.117Z,18.43
2017-04-26T07:55:08.683Z,18.36
2017-04-26T07:55:34.234Z,18.4
2017-04-26T07:55:59.799Z,18.43
2017-04-26T07:56:25.361Z,18.36
2017-04-26T07:56:50.920Z,18.33
2017-04-26T07:57:16.478Z,18.36
2017-04-26T07:57:42.032Z,18.33
2017-04-26T07:58:07.569Z,18.34
2017-04-26T07:58:33.192Z,18.36
2017-04-26T07:58:58.737Z,18.33
2017-04-26T07:59:24.402Z,18.42
2017-04-26T07:59:49.972Z,18.42
2017-04-26T08:00:15.517Z,18.39
2017-04-26T08:00:41.072Z,18.34
2017-04-26T08:01:06.666Z,18.39
2017-04-26T08:01:32.340Z,18.39
2017-04-26T08:01:57.883Z,18.44
2017-04-26T08:02:23.447Z,18.37
2017-04-26T08:02:48.990Z,18.39
2017-04-26T08:03:14.539Z,18.37
2017-04-26T08:03:40.108Z,18.4
2017-04-26T08:04:05.644Z,18.39
2017-04-26T08:04:31.208Z,18.34
2017-04-26T08:04:56.731Z,18.34
2017-04-26T08:05:22.325Z,18.39
2017-04-26T08:05:47.894Z,18.33
2017-04-26T08:06:13.433Z,18.29
2017-04-26T08:06:39.002Z,18.33
2017-04-26T08:07:04.609Z,18.34
2017-04-26T08:07:30.150Z,18.37
2017-04-26T08:07:55.716Z,18.39
2017-04-26T08:08:21.256Z,18.37
2017-04-26T08:08:46.817Z,18.4
2017-04-26T08:09:12.428Z,18.34
2017-04-26T08:09:38.052Z,18.31
2017-04-26T08:10:03.641Z,18.39
2017-04-26T08:10:29.199Z,18.37
2017-04-26T08:10:54.759Z,18.36
2017-04-26T08:11:20.335Z,18.33
2017-04-26T08:11:45.880Z,18.42
2017-04-26T08:12:11.621Z,18.36
2017-04-26T08:12:37.182Z,18.36
2017-04-26T08:13:02.734Z,18.29
2017-04-26T08:13:28.288Z,18.31
2017-04-26T08:13:53.844Z,18.4
2017-04-26T08:14:19.415Z,18.39
2017-04-26T08:14:45.036Z,18.4
2017-04-26T08:15:10.603Z,18.36
2017-04-26T08:15:36.162Z,18.36
2017-04-26T08:16:01.868Z,18.36
2017-04-26T08:16:27.412Z,18.28
2017-04-26T08:16:52.987Z,18.37
2017-04-26T08:17:18.583Z,18.33
2017-04-26T08:17:44.164Z,18.34
2017-04-26T08:18:09.723Z,18.37
2017-04-26T08:18:35.277Z,18.39
2017-04-26T08:19:00.851Z,18.37
2017-04-26T08:19:26.407Z,18.33
2017-04-26T08:19:52.009Z,18.36
2017-04-26T08:20:17.575Z,18.36
2017-04-26T08:20:43.181Z,18.33
2017-04-26T08:21:08.814Z,18.37
2017-04-26T08:21:34.359Z,18.31
2017-04-26T08:21:59.908Z,18.37
2017-04-26T08:22:25.464Z,18.29
2017-04-26T08:22:51.011Z,18.36
2017-04-26T08:23:16.583Z,18.31
2017-04-26T08:23:42.133Z,18.31
2017-04-26T08:24:07.692Z,18.42
2017-04-26T08:24:33.264Z,18.34
2017-04-26T08:24:58.910Z,18.31
2017-04-26T08:25:24.466Z,18.37
2017-04-26T08:25:50.023Z,18.34
2017-04-26T08:26:15.560Z,18.37
2017-04-26T08:26:41.118Z,18.37
2017-04-26T08:27:06.763Z,18.34
2017-04-26T08:27:32.334Z,18.36
2017-04-26T08:27:57.871Z,18.37
2017-04-26T08:28:23.572Z,18.28
2017-04-26T08:28:49.134Z,18.37
2017-04-26T08:29:14.692Z,18.33
2017-04-26T08:29:40.249Z,18.31
2017-04-26T08:30:05.833Z,18.33
2017-04-26T08:30:31.396Z,18.4
2017-04-26T08:30:56.972Z,18.39
2017-04-26T08:31:22.527Z,18.36
2017-04-26T08:31:48.108Z,18.37
2017-04-26T08:32:13.712Z,18.31
2017-04-26T08:32:39.257Z,18.31
2017-04-26T08:33:04.836Z,18.37
2017-04-26T08:33:30.426Z,18.29
2017-04-26T08:33:55.991Z,18.37
2017-04-26T08:34:21.560Z,18.39
2017-04-26T08:34:47.114Z,18.37
2017-04-26T08:35:12.679Z,18.43
2017-04-26T08:35:38.219Z,18.34
2017-04-26T08:36:03.878Z,18.31
2017-04-26T08:36:29.426Z,18.36
2017-04-26T08:36:54.995Z,18.34
2017-04-26T08:37:20.587Z,18.33